createdAt,value
2018-05-01T00:01:12.609Z,48.04
2018-05-01T00:03:40.024Z,48.45
2018-05-01T00:06:07.436Z,47.91
2018-05-01T00:08:34.849Z,47.94
2018-05-01T00:11:02.249Z,47.68
2018-05-01T00:13:29.664Z,47.66
2018-05-01T00:15:57.069Z,47.72
2018-05-01T00:18:24.486Z,47.86
2018-05-01T00:20:51.880Z,47.40
2018-05-01T00:23:19.292Z,46.91
2018-05-01T00:25:46.713Z,47.16
2018-05-01T00:28:14.129Z,47.54
2018-05-01T00:30:41.524Z,47.07
2018-05-01T00:33:08.941Z,47.43
2018-05-01T00:35:36.349Z,47.43
2018-05-01T00:38:03.769Z,46.89
2018-05-01T00:40:31.185Z,47.07
2018-05-01T00:42:58.603Z,46.87
2018-05-01T00:45:26.005Z,46.80
2018-05-01T00:47:53.428Z,46.88
2018-05-01T00:50:20.848Z,46.80
2018-05-01T00:52:48.248Z,46.82
2018-05-01T00:55:15.656Z,46.22
2018-05-01T00:57:43.086Z,45.62
2018-05-01T01:00:10.468Z,46.00
2018-05-01T01:02:37.872Z,45.75
2018-05-01T01:05:05.290Z,45.67
2018-05-01T01:07:32.689Z,45.75
2018-05-01T01:10:00.097Z,45.29
2018-05-01T01:12:27.502Z,45.20
2018-05-01T01:14:54.914Z,44.58
2018-05-01T01:17:22.318Z,45.01
2018-05-01T01:19:49.733Z,44.63
2018-05-01T01:22:17.141Z,44.74
2018-05-01T01:24:44.552Z,44.93
2018-05-01T01:27:11.952Z,46.43
2018-05-01T01:29:39.361Z,46.98
2018-05-01T01:32:14.711Z,48.29
2018-05-01T01:34:42.129Z,48.13
2018-05-01T01:37:08.998Z,48.45
2018-05-01T01:39:35.869Z,48.66
2018-05-01T01:42:02.741Z,48.95
2018-05-01T01:44:29.607Z,49.23
2018-05-01T01:46:56.505Z,48.67
2018-05-01T01:49:23.451Z,48.64
2018-05-01T01:51:50.241Z,49.03
2018-05-01T01:54:17.107Z,48.18
2018-05-01T01:56:43.973Z,48.50
2018-05-01T01:59:10.844Z,48.52
2018-05-01T02:01:37.708Z,48.63
2018-05-01T02:04:04.595Z,48.60
2018-05-01T02:06:31.464Z,48.52
2018-05-01T02:08:58.322Z,48.73
2018-05-01T02:11:25.188Z,49.01
2018-05-01T02:13:52.049Z,48.33
2018-05-01T02:16:18.925Z,48.60
2018-05-01T02:18:45.794Z,48.56
2018-05-01T02:21:12.664Z,48.59
2018-05-01T02:23:39.520Z,48.45
2018-05-01T02:26:06.387Z,48.60
2018-05-01T02:28:33.260Z,48.65
2018-05-01T02:31:00.129Z,47.96
2018-05-01T02:33:26.989Z,47.56
2018-05-01T02:35:53.889Z,47.21
2018-05-01T02:38:20.762Z,48.04
2018-05-01T02:40:47.628Z,47.98
2018-05-01T02:43:14.497Z,47.37
2018-05-01T02:45:41.366Z,47.51
2018-05-01T02:48:08.229Z,47.73
2018-05-01T02:50:35.088Z,47.13
2018-05-01T02:53:01.955Z,46.95
2018-05-01T02:55:28.818Z,47.35
2018-05-01T02:57:55.681Z,46.81
2018-05-01T03:00:22.540Z,46.64
2018-05-01T03:02:49.416Z,46.81
2018-05-01T03:05:16.276Z,46.71
2018-05-01T03:07:43.147Z,46.89
2018-05-01T03:10:10.023Z,46.81
2018-05-01T03:12:36.880Z,47.14
2018-05-01T03:15:03.745Z,46.83
2018-05-01T03:17:30.618Z,46.89
2018-05-01T03:19:57.479Z,46.60
2018-05-01T03:22:24.352Z,46.59
2018-05-01T03:24:51.216Z,46.65
2018-05-01T03:27:18.080Z,47.03
2018-05-01T03:29:44.941Z,46.96
2018-05-01T03:32:11.815Z,46.88
2018-05-01T03:34:38.682Z,46.99
2018-05-01T03:37:05.560Z,47.23
2018-05-01T03:39:32.420Z,47.49
2018-05-01T03:41:59.280Z,47.46
2018-05-01T03:44:26.154Z,47.58
2018-05-01T03:46:53.014Z,47.73
2018-05-01T03:49:19.885Z,47.83
2018-05-01T03:51:46.754Z,48.05
2018-05-01T03:54:13.621Z,48.74
2018-05-01T03:56:40.480Z,48.31
2018-05-01T03:59:07.378Z,48.95
2018-05-01T04:01:34.236Z,48.91
2018-05-01T04:04:01.106Z,48.91
2018-05-01T04:06:27.964Z,49.30
2018-05-01T04:08:54.836Z,49.79
2018-05-01T04:11:22.504Z,49.80
2018-05-01T04:13:49.384Z,50.19
2018-05-01T04:16:16.256Z,50.28
2018-05-01T04:18:43.132Z,50.39
2018-05-01T04:21:09.994Z,50.59
2018-05-01T04:23:36.860Z,50.79
2018-05-01T04:26:03.728Z,50.78
2018-05-01T04:28:30.596Z,50.82
2018-05-01T04:30:57.471Z,50.82
2018-05-01T04:33:24.336Z,51.35
2018-05-01T04:35:51.204Z,51.34
2018-05-01T04:38:18.065Z,51.16
2018-05-01T04:40:44.934Z,51.25
2018-05-01T04:43:11.801Z,51.67
2018-05-01T04:45:38.693Z,52.21
2018-05-01T04:48:05.564Z,51.97
2018-05-01T04:50:32.440Z,52.93
2018-05-01T04:52:59.300Z,52.76
2018-05-01T04:55:26.179Z,52.72
2018-05-01T04:57:53.036Z,53.15
2018-05-01T05:00:19.917Z,53.18
2018-05-01T05:02:46.786Z,52.87
2018-05-01T05:05:13.656Z,53.05
2018-05-01T05:07:40.520Z,54.19
2018-05-01T05:10:07.393Z,54.46
2018-05-01T05:12:34.261Z,55.25
2018-05-01T05:15:01.137Z,56.82
2018-05-01T05:17:28.000Z,56.14
2018-05-01T05:19:54.877Z,57.34
2018-05-01T05:22:21.744Z,56.98
2018-05-01T05:24:48.604Z,57.15
2018-05-01T05:27:15.476Z,57.53
2018-05-01T05:29:42.344Z,57.40
2018-05-01T05:32:09.220Z,58.16
2018-05-01T05:34:36.121Z,58.16
2018-05-01T05:37:02.965Z,57.61
2018-05-01T05:39:29.837Z,56.75
2018-05-01T05:41:56.701Z,57.09
2018-05-01T05:44:23.576Z,57.18
2018-05-01T05:46:50.453Z,57.25
2018-05-01T05:49:17.316Z,57.61
2018-05-01T05:51:44.191Z,58.84
2018-05-01T05:54:11.072Z,58.54
2018-05-01T05:56:37.940Z,58.80
2018-05-01T05:59:04.805Z,59.27
2018-05-01T06:01:31.716Z,59.48
2018-05-01T06:03:58.572Z,59.61
2018-05-01T06:06:25.452Z,60.10
2018-05-01T06:08:52.313Z,59.53
2018-05-01T06:11:19.180Z,59.53
2018-05-01T06:13:46.127Z,59.67
2018-05-01T06:16:12.917Z,60.10
2018-05-01T06:18:39.776Z,61.61
2018-05-01T06:21:06.649Z,60.35
2018-05-01T06:23:33.508Z,61.79
2018-05-01T06:26:00.376Z,61.67
2018-05-01T06:28:27.239Z,61.49
2018-05-01T06:30:54.117Z,61.97
2018-05-01T06:33:20.980Z,62.71
2018-05-01T06:35:47.854Z,62.24
2018-05-01T06:38:14.712Z,61.79
2018-05-01T06:40:41.581Z,62.00
2018-05-01T06:43:08.445Z,62.83
2018-05-01T06:45:35.309Z,61.95
2018-05-01T06:48:02.217Z,63.32
2018-05-01T06:50:29.089Z,63.12
2018-05-01T06:52:55.960Z,63.19
2018-05-01T06:55:22.831Z,63.69
2018-05-01T06:57:49.720Z,64.17
2018-05-01T07:00:16.558Z,64.64
2018-05-01T07:02:43.427Z,64.85
2018-05-01T07:05:10.295Z,65.13
2018-05-01T07:07:37.161Z,65.08
2018-05-01T07:10:04.029Z,65.98
2018-05-01T07:12:30.915Z,65.68
2018-05-01T07:14:57.780Z,66.04
2018-05-01T07:17:24.648Z,66.52
2018-05-01T07:19:51.508Z,66.77
2018-05-01T07:22:18.377Z,65.71
2018-05-01T07:24:45.244Z,67.34
2018-05-01T07:27:12.113Z,67.25
2018-05-01T07:29:38.981Z,67.14
2018-05-01T07:32:05.853Z,67.55
2018-05-01T07:34:32.708Z,67.77
2018-05-01T07:36:59.596Z,67.71
2018-05-01T07:39:26.457Z,67.58
2018-05-01T07:41:53.326Z,68.17
2018-05-01T07:44:20.188Z,68.66
2018-05-01T07:46:47.062Z,70.27
2018-05-01T07:49:13.919Z,69.72
2018-05-01T07:51:40.797Z,69.39
2018-05-01T07:54:07.653Z,69.01
2018-05-01T07:56:34.515Z,69.56
2018-05-01T07:59:01.386Z,68.97
2018-05-01T08:01:28.258Z,69.56
2018-05-01T08:03:55.124Z,68.72
2018-05-01T08:06:21.993Z,69.10
2018-05-01T08:08:48.857Z,69.71
2018-05-01T08:11:15.715Z,69.71
2018-05-01T08:13:42.588Z,70.39
2018-05-01T08:16:09.457Z,69.51
2018-05-01T08:18:36.376Z,69.15
2018-05-01T08:21:03.191Z,70.25
2018-05-01T08:23:30.083Z,70.15
2018-05-01T08:25:56.950Z,69.56
2018-05-01T08:28:23.826Z,69.93
2018-05-01T08:30:50.688Z,69.57
2018-05-01T08:33:17.560Z,70.29
2018-05-01T08:35:44.423Z,69.41
2018-05-01T08:38:11.296Z,69.87
2018-05-01T08:40:38.152Z,70.21
2018-05-01T08:43:05.021Z,69.36
2018-05-01T08:45:31.885Z,69.58
2018-05-01T08:47:58.761Z,70.16
2018-05-01T08:50:25.627Z,69.41
2018-05-01T08:52:52.497Z,69.87
2018-05-01T08:55:19.368Z,70.14
2018-05-01T08:57:46.241Z,69.76
2018-05-01T09:00:13.104Z,69.78
2018-05-01T09:02:39.972Z,69.69
2018-05-01T09:05:06.841Z,69.74
2018-05-01T09:07:33.708Z,70.08
2018-05-01T09:10:00.572Z,70.40
2018-05-01T09:12:27.466Z,69.85
2018-05-01T09:14:54.324Z,69.46
2018-05-01T09:17:21.203Z,70.07
2018-05-01T09:19:48.068Z,70.62
2018-05-01T09:22:14.938Z,70.04
2018-05-01T09:24:41.796Z,69.97
2018-05-01T09:27:08.671Z,69.74
2018-05-01T09:29:35.536Z,69.92
2018-05-01T09:32:02.408Z,69.88
2018-05-01T09:34:29.265Z,69.66
2018-05-01T09:36:56.187Z,70.14
2018-05-01T09:39:23.042Z,70.45
2018-05-01T09:41:49.957Z,70.98
2018-05-01T09:44:16.779Z,71.18
2018-05-01T09:46:43.651Z,70.81
2018-05-01T09:49:10.521Z,70.47
2018-05-01T09:51:37.381Z,70.99
2018-05-01T09:54:04.800Z,70.97
2018-05-01T09:56:32.201Z,70.94
2018-05-01T09:58:59.614Z,70.95
2018-05-01T10:01:27.012Z,71.01
2018-05-01T10:03:54.425Z,70.70
2018-05-01T10:06:21.824Z,71.25
2018-05-01T10:08:49.246Z,70.76
2018-05-01T10:11:16.644Z,70.94
2018-05-01T10:13:44.057Z,71.39
2018-05-01T10:16:11.451Z,71.25
2018-05-01T10:18:38.869Z,70.92
2018-05-01T10:21:06.268Z,71.43
2018-05-01T10:23:33.681Z,70.91
2018-05-01T10:26:01.081Z,71.45
2018-05-01T10:28:28.492Z,70.14
2018-05-01T10:30:55.892Z,71.06
2018-05-01T10:33:23.301Z,70.19
2018-05-01T10:35:50.705Z,69.28
2018-05-01T10:38:18.112Z,69.38
2018-05-01T10:40:45.512Z,69.87
2018-05-01T10:43:12.921Z,68.79
2018-05-01T10:45:40.347Z,68.76
2018-05-01T10:48:07.742Z,68.01
2018-05-01T10:50:35.146Z,68.46
2018-05-01T10:53:02.558Z,69.61
2018-05-01T10:55:29.961Z,67.46
2018-05-01T10:57:57.377Z,66.95
2018-05-01T11:00:24.772Z,67.25
2018-05-01T11:02:52.210Z,67.69
2018-05-01T11:05:19.608Z,67.52
2018-05-01T11:07:47.020Z,66.09
2018-05-01T11:10:14.423Z,66.65
2018-05-01T11:12:41.817Z,65.87
2018-05-01T11:15:09.229Z,66.40
2018-05-01T11:17:36.632Z,66.04
2018-05-01T11:20:04.037Z,66.39
2018-05-01T11:22:31.435Z,65.54
2018-05-01T11:24:58.836Z,65.53
2018-05-01T11:27:26.244Z,65.11
2018-05-01T11:29:53.656Z,65.41
2018-05-01T11:32:21.067Z,65.36
2018-05-01T11:34:48.473Z,64.31
2018-05-01T11:37:15.882Z,63.82
2018-05-01T11:39:43.298Z,64.38
2018-05-01T11:42:10.700Z,64.17
2018-05-01T11:44:38.122Z,64.05
2018-05-01T11:47:05.519Z,63.62
2018-05-01T11:49:32.941Z,63.96
2018-05-01T11:52:00.345Z,63.01
2018-05-01T11:54:27.760Z,62.87
2018-05-01T11:56:55.167Z,63.09
2018-05-01T11:59:22.581Z,63.56
2018-05-01T12:01:49.993Z,62.74
2018-05-01T12:04:17.404Z,62.65
2018-05-01T12:06:44.816Z,62.24
2018-05-01T12:09:12.229Z,63.00
2018-05-01T12:11:39.628Z,62.33
2018-05-01T12:14:07.044Z,63.73
2018-05-01T12:16:34.452Z,62.94
2018-05-01T12:19:01.873Z,61.78
2018-05-01T12:21:29.281Z,62.01
2018-05-01T12:23:56.709Z,62.24
2018-05-01T12:26:24.107Z,61.68
2018-05-01T12:28:51.517Z,62.28
2018-05-01T12:31:18.928Z,62.91
2018-05-01T12:33:46.348Z,62.40
2018-05-01T12:36:13.757Z,62.40
2018-05-01T12:38:41.173Z,62.24
2018-05-01T12:41:08.584Z,62.26
2018-05-01T12:43:36.037Z,63.69
2018-05-01T12:46:03.440Z,63.06
2018-05-01T12:48:30.861Z,64.59
2018-05-01T12:50:58.265Z,64.27
2018-05-01T12:53:25.679Z,65.46
2018-05-01T12:55:53.092Z,65.48
2018-05-01T12:58:20.495Z,65.73
2018-05-01T13:00:47.911Z,66.61
2018-05-01T13:03:15.315Z,66.82
2018-05-01T13:05:42.762Z,66.65
2018-05-01T13:08:10.164Z,67.27
2018-05-01T13:10:37.581Z,67.13
2018-05-01T13:13:04.998Z,66.17
2018-05-01T13:15:32.412Z,65.68
2018-05-01T13:17:59.825Z,65.87
2018-05-01T13:20:27.239Z,65.96
2018-05-01T13:22:54.644Z,65.33
2018-05-01T13:25:22.051Z,64.83
2018-05-01T13:27:49.466Z,65.72
2018-05-01T13:30:16.882Z,65.57
2018-05-01T13:32:44.284Z,64.90
2018-05-01T13:35:11.701Z,65.16
2018-05-01T13:37:39.107Z,64.70
2018-05-01T13:40:06.516Z,63.76
2018-05-01T13:42:33.928Z,64.29
2018-05-01T13:45:01.341Z,63.81
2018-05-01T13:47:28.743Z,63.56
2018-05-01T13:49:56.159Z,64.02
2018-05-01T13:52:23.572Z,65.44
2018-05-01T13:54:50.981Z,64.42
2018-05-01T13:57:18.452Z,64.51
2018-05-01T13:59:45.811Z,64.58
2018-05-01T14:02:13.212Z,64.61
2018-05-01T14:04:40.633Z,64.38
2018-05-01T14:07:08.040Z,64.45
2018-05-01T14:09:35.459Z,64.83
2018-05-01T14:12:02.911Z,66.01
2018-05-01T14:14:30.316Z,65.64
2018-05-01T14:16:57.728Z,66.66
2018-05-01T14:19:25.172Z,66.54
2018-05-01T14:21:52.572Z,65.96
2018-05-01T14:24:19.980Z,66.40
2018-05-01T14:26:47.392Z,65.69
2018-05-01T14:29:14.801Z,66.35
2018-05-01T14:31:42.216Z,66.53
2018-05-01T14:34:09.634Z,66.46
2018-05-01T14:36:37.045Z,67.59
2018-05-01T14:39:04.472Z,67.84
2018-05-01T14:41:31.892Z,67.83
2018-05-01T14:43:59.296Z,67.55
2018-05-01T14:46:26.713Z,67.39
2018-05-01T14:48:54.123Z,67.70
2018-05-01T14:51:21.523Z,67.71
2018-05-01T14:53:48.924Z,67.47
2018-05-01T14:56:16.335Z,68.40
2018-05-01T14:58:43.744Z,68.18
2018-05-01T15:01:11.152Z,69.18
2018-05-01T15:03:38.565Z,68.44
2018-05-01T15:06:05.984Z,68.04
2018-05-01T15:08:33.389Z,68.25
2018-05-01T15:11:00.803Z,67.08
2018-05-01T15:13:28.202Z,67.77
2018-05-01T15:15:55.608Z,67.35
2018-05-01T15:18:23.022Z,67.65
2018-05-01T15:20:50.439Z,68.05
2018-05-01T15:23:17.832Z,67.77
2018-05-01T15:25:45.240Z,66.80
2018-05-01T15:28:12.641Z,65.46
2018-05-01T15:30:40.051Z,64.62
2018-05-01T15:33:07.448Z,64.77
2018-05-01T15:35:34.860Z,63.94
2018-05-01T15:38:02.268Z,63.44
2018-05-01T15:40:29.672Z,63.12
2018-05-01T15:42:57.081Z,63.47
2018-05-01T15:45:24.500Z,63.24
2018-05-01T15:47:51.908Z,62.36
2018-05-01T15:50:19.325Z,62.09
2018-05-01T15:52:46.727Z,61.91
2018-05-01T15:55:14.162Z,61.35
2018-05-01T15:57:41.565Z,62.29
2018-05-01T16:00:08.968Z,62.29
2018-05-01T16:02:36.381Z,61.96
2018-05-01T16:05:03.793Z,62.21
2018-05-01T16:07:31.205Z,61.66
2018-05-01T16:09:58.623Z,62.17
2018-05-01T16:12:26.036Z,62.59
2018-05-01T16:14:53.455Z,62.52
2018-05-01T16:17:20.905Z,62.63
2018-05-01T16:19:48.310Z,63.08
2018-05-01T16:22:15.734Z,63.78
2018-05-01T16:24:43.139Z,63.58
2018-05-01T16:27:10.558Z,64.42
2018-05-01T16:29:37.961Z,64.57
2018-05-01T16:32:05.376Z,64.93
2018-05-01T16:34:32.785Z,65.53
2018-05-01T16:37:00.201Z,65.55
2018-05-01T16:39:27.609Z,64.87
2018-05-01T16:41:55.046Z,65.11
2018-05-01T16:44:22.452Z,64.91
2018-05-01T16:46:49.863Z,64.29
2018-05-01T16:49:17.270Z,64.48
2018-05-01T16:51:44.696Z,62.05
2018-05-01T16:54:12.100Z,61.79
2018-05-01T16:56:39.523Z,60.63
2018-05-01T16:59:06.921Z,60.25
2018-05-01T17:01:34.343Z,60.15
2018-05-01T17:04:01.757Z,60.56
2018-05-01T17:06:29.168Z,59.78
2018-05-01T17:08:56.567Z,59.62
2018-05-01T17:11:23.987Z,58.52
2018-05-01T17:13:51.396Z,56.59
2018-05-01T17:16:18.807Z,57.36
2018-05-01T17:18:46.230Z,56.27
2018-05-01T17:21:13.646Z,56.35
2018-05-01T17:23:41.060Z,56.21
2018-05-01T17:26:08.476Z,55.58
2018-05-01T17:28:35.883Z,55.67
2018-05-01T17:31:03.317Z,55.27
2018-05-01T17:33:30.720Z,54.94
2018-05-01T17:35:58.137Z,55.82
2018-05-01T17:38:25.541Z,54.70
2018-05-01T17:40:53.015Z,54.96
2018-05-01T17:43:20.372Z,53.75
2018-05-01T17:45:47.779Z,53.87
2018-05-01T17:48:15.183Z,55.10
2018-05-01T17:50:42.589Z,54.52
2018-05-01T17:53:10.003Z,53.91
2018-05-01T17:55:37.404Z,54.34
2018-05-01T17:58:04.829Z,54.84
2018-05-01T18:00:32.231Z,54.69
2018-05-01T18:02:59.648Z,54.44
2018-05-01T18:05:27.049Z,54.63
2018-05-01T18:07:54.463Z,54.81
2018-05-01T18:10:21.880Z,54.17
2018-05-01T18:12:49.289Z,55.03
2018-05-01T18:15:16.697Z,54.31
2018-05-01T18:17:44.112Z,55.25
2018-05-01T18:20:11.533Z,54.52
2018-05-01T18:22:38.948Z,54.11
2018-05-01T18:25:06.352Z,53.83
2018-05-01T18:27:33.769Z,53.86
2018-05-01T18:30:01.172Z,53.09
2018-05-01T18:32:28.601Z,52.68
2018-05-01T18:34:55.997Z,53.20
2018-05-01T18:37:23.412Z,52.66
2018-05-01T18:39:50.825Z,52.02
2018-05-01T18:42:18.231Z,50.90
2018-05-01T18:44:45.640Z,50.96
2018-05-01T18:47:13.051Z,51.40
2018-05-01T18:49:40.462Z,52.10
2018-05-01T18:52:07.881Z,51.34
2018-05-01T18:54:35.288Z,50.95
2018-05-01T18:57:02.705Z,51.38
2018-05-01T18:59:30.113Z,51.63
2018-05-01T19:01:57.542Z,51.75
2018-05-01T19:04:25.040Z,51.93
2018-05-01T19:06:52.352Z,51.47
2018-05-01T19:09:19.772Z,51.43
2018-05-01T19:11:47.255Z,51.77
2018-05-01T19:14:14.588Z,52.06
2018-05-01T19:16:41.993Z,52.27
2018-05-01T19:19:09.426Z,52.33
2018-05-01T19:21:36.821Z,52.39
2018-05-01T19:24:04.258Z,52.51
2018-05-01T19:26:31.661Z,52.75
2018-05-01T19:28:59.077Z,52.88
2018-05-01T19:31:26.485Z,53.49
2018-05-01T19:33:53.904Z,53.46
2018-05-01T19:36:21.331Z,54.05
2018-05-01T19:38:48.737Z,53.80
2018-05-01T19:41:16.175Z,53.73
2018-05-01T19:43:43.593Z,53.91
2018-05-01T19:46:11.009Z,53.78
2018-05-01T19:48:38.443Z,54.05
2018-05-01T19:51:05.867Z,54.06
2018-05-01T19:53:33.270Z,54.48
2018-05-01T19:56:00.675Z,54.28
2018-05-01T19:58:28.092Z,54.73
2018-05-01T20:00:55.508Z,54.76
2018-05-01T20:03:22.957Z,55.03
2018-05-01T20:05:50.351Z,55.17
2018-05-01T20:08:17.733Z,55.63
2018-05-01T20:10:45.140Z,56.26
2018-05-01T20:13:12.552Z,56.09
2018-05-01T20:15:39.960Z,56.30
2018-05-01T20:18:07.368Z,56.42
2018-05-01T20:20:34.780Z,57.02
2018-05-01T20:23:02.201Z,56.98
2018-05-01T20:25:29.597Z,57.23
2018-05-01T20:27:57.008Z,57.61
2018-05-01T20:30:24.568Z,58.06
2018-05-01T20:32:51.832Z,58.42
2018-05-01T20:35:19.233Z,58.71
2018-05-01T20:37:46.641Z,58.82
2018-05-01T20:40:14.040Z,59.28
2018-05-01T20:42:41.439Z,59.28
2018-05-01T20:45:08.843Z,59.32
2018-05-01T20:47:36.261Z,59.46
2018-05-01T20:50:03.667Z,59.59
2018-05-01T20:52:31.068Z,60.04
2018-05-01T20:54:58.475Z,60.49
2018-05-01T20:57:25.877Z,60.55
2018-05-01T20:59:53.284Z,60.63
2018-05-01T21:02:20.722Z,60.71
2018-05-01T21:04:48.176Z,60.89
2018-05-01T21:07:15.576Z,61.09
2018-05-01T21:09:42.985Z,60.90
2018-05-01T21:12:10.389Z,61.19
2018-05-01T21:14:37.794Z,60.96
2018-05-01T21:17:05.192Z,61.15
2018-05-01T21:19:32.608Z,61.22
2018-05-01T21:22:00.050Z,61.58
2018-05-01T21:24:27.469Z,60.87
2018-05-01T21:26:54.869Z,60.84
2018-05-01T21:29:22.286Z,60.16
2018-05-01T21:31:49.683Z,60.39
2018-05-01T21:34:17.084Z,60.44
2018-05-01T21:36:44.488Z,60.38
2018-05-01T21:39:11.900Z,59.39
2018-05-01T21:41:39.300Z,59.35
2018-05-01T21:44:06.712Z,59.37
2018-05-01T21:46:34.113Z,58.71
2018-05-01T21:49:01.528Z,58.71
2018-05-01T21:51:28.932Z,58.85
2018-05-01T21:53:56.344Z,58.46
2018-05-01T21:56:23.739Z,58.13
2018-05-01T21:58:51.163Z,57.86
2018-05-01T22:01:18.562Z,57.28
2018-05-01T22:03:45.988Z,57.15
2018-05-01T22:06:13.437Z,57.27
2018-05-01T22:08:40.852Z,57.39
2018-05-01T22:11:08.253Z,57.62
2018-05-01T22:13:35.664Z,57.85
2018-05-01T22:16:03.069Z,57.44
2018-05-01T22:18:30.474Z,56.83
2018-05-01T22:20:57.901Z,56.95
2018-05-01T22:23:25.307Z,56.91
2018-05-01T22:25:52.878Z,56.91
2018-05-01T22:28:20.276Z,57.14
2018-05-01T22:30:47.686Z,57.02
2018-05-01T22:33:15.098Z,56.37
2018-05-01T22:35:42.497Z,56.29
2018-05-01T22:38:09.913Z,56.47
2018-05-01T22:40:37.353Z,56.48
2018-05-01T22:43:04.723Z,56.38
2018-05-01T22:45:32.133Z,56.53
2018-05-01T22:47:59.533Z,56.17
2018-05-01T22:50:26.945Z,56.56
2018-05-01T22:52:54.344Z,56.59
2018-05-01T22:55:21.756Z,56.66
2018-05-01T22:57:49.160Z,56.52
2018-05-01T23:00:16.571Z,56.60
2018-05-01T23:02:43.978Z,56.62
2018-05-01T23:05:11.392Z,56.58
2018-05-01T23:07:38.797Z,56.46
2018-05-01T23:10:06.208Z,56.89
2018-05-01T23:12:33.612Z,57.09
2018-05-01T23:15:01.030Z,57.23
2018-05-01T23:17:28.428Z,56.84
2018-05-01T23:19:55.841Z,57.23
2018-05-01T23:22:23.244Z,57.62
2018-05-01T23:24:50.656Z,57.39
2018-05-01T23:27:18.057Z,57.83
2018-05-01T23:29:45.472Z,57.88
2018-05-01T23:32:12.869Z,58.50
2018-05-01T23:34:40.280Z,58.30
2018-05-01T23:37:07.680Z,58.66
2018-05-01T23:39:35.097Z,58.43
2018-05-01T23:42:02.496Z,59.23
2018-05-01T23:44:29.899Z,59.00
2018-05-01T23:46:57.308Z,59.19
2018-05-01T23:49:24.740Z,59.67
2018-05-01T23:51:52.132Z,59.91
2018-05-01T23:54:19.562Z,60.11
2018-05-01T23:56:46.964Z,60.13
2018-05-01T23:59:14.364Z,60.37
